sensor_id;sensor_type;location;lat;lon;timestamp;pressure;altitude;pressure_sealevel;temperature;humidity
79273;BME280;68718;-19.302;146.788;2023-03-23T00:00:09;101625.07;;;27.98;64.83
79273;BME280;68718;-19.302;146.788;2023-03-23T00:02:33;101620.70;;;28.16;62.74
79273;BME280;68718;-19.302;146.788;2023-03-23T00:04:58;101614.64;;;28.23;62.20
79273;BME280;68718;-19.302;146.788;2023-03-23T00:07:24;101603.17;;;28.53;62.10
79273;BME280;68718;-19.302;146.788;2023-03-23T00:09:50;101606.74;;;29.48;61.21
79273;BME280;68718;-19.302;146.788;2023-03-23T00:12:15;101606.17;;;28.81;63.23
79273;BME280;68718;-19.302;146.788;2023-03-23T00:14:40;101609.70;;;28.66;62.52
79273;BME280;68718;-19.302;146.788;2023-03-23T00:17:05;101611.34;;;28.19;63.49
79273;BME280;68718;-19.302;146.788;2023-03-23T00:19:30;101612.65;;;28.51;63.80
79273;BME280;68718;-19.302;146.788;2023-03-23T00:21:56;101605.51;;;29.49;61.78
79273;BME280;68718;-19.302;146.788;2023-03-23T00:24:22;101599.95;;;29.27;61.66
79273;BME280;68718;-19.302;146.788;2023-03-23T00:26:47;101605.53;;;28.68;63.84
79273;BME280;68718;-19.302;146.788;2023-03-23T00:29:14;101602.79;;;29.07;62.54
79273;BME280;68718;-19.302;146.788;2023-03-23T00:31:37;101604.55;;;29.59;61.15
79273;BME280;68718;-19.302;146.788;2023-03-23T00:34:04;101604.85;;;29.90;59.86
79273;BME280;68718;-19.302;146.788;2023-03-23T00:36:29;101601.36;;;29.13;59.33
79273;BME280;68718;-19.302;146.788;2023-03-23T00:38:53;101610.10;;;28.53;61.79
79273;BME280;68718;-19.302;146.788;2023-03-23T00:41:18;101614.80;;;28.93;60.50
79273;BME280;68718;-19.302;146.788;2023-03-23T00:43:44;101615.61;;;28.58;63.30
79273;BME280;68718;-19.302;146.788;2023-03-23T00:46:09;101611.60;;;28.81;61.97
79273;BME280;68718;-19.302;146.788;2023-03-23T00:48:35;101608.33;;;28.64;62.58
79273;BME280;68718;-19.302;146.788;2023-03-23T00:51:00;101607.89;;;28.79;62.82
79273;BME280;68718;-19.302;146.788;2023-03-23T00:53:25;101605.94;;;28.82;62.42
79273;BME280;68718;-19.302;146.788;2023-03-23T00:55:51;101603.78;;;28.51;62.01
79273;BME280;68718;-19.302;146.788;2023-03-23T00:58:16;101600.46;;;28.93;61.45
79273;BME280;68718;-19.302;146.788;2023-03-23T01:00:42;101599.95;;;28.61;60.54
79273;BME280;68718;-19.302;146.788;2023-03-23T01:03:08;101601.72;;;28.85;59.96
79273;BME280;68718;-19.302;146.788;2023-03-23T01:05:37;101590.45;;;29.22;59.72
79273;BME280;68718;-19.302;146.788;2023-03-23T01:07:58;101588.07;;;28.99;59.78
79273;BME280;68718;-19.302;146.788;2023-03-23T01:10:23;101590.31;;;29.10;59.28
79273;BME280;68718;-19.302;146.788;2023-03-23T01:12:48;101584.61;;;29.15;58.53
79273;BME280;68718;-19.302;146.788;2023-03-23T01:15:16;101574.94;;;29.86;58.12
79273;BME280;68718;-19.302;146.788;2023-03-23T01:17:39;101577.41;;;29.75;59.82
79273;BME280;68718;-19.302;146.788;2023-03-23T01:20:05;101567.37;;;29.73;59.27
79273;BME280;68718;-19.302;146.788;2023-03-23T01:22:31;101565.18;;;29.16;60.30
79273;BME280;68718;-19.302;146.788;2023-03-23T01:24:55;101563.01;;;29.91;57.18
79273;BME280;68718;-19.302;146.788;2023-03-23T01:27:21;101562.18;;;30.06;58.22
79273;BME280;68718;-19.302;146.788;2023-03-23T01:29:46;101553.46;;;29.50;59.69
79273;BME280;68718;-19.302;146.788;2023-03-23T01:32:11;101548.27;;;29.28;58.84
79273;BME280;68718;-19.302;146.788;2023-03-23T01:34:37;101544.82;;;29.77;58.46
79273;BME280;68718;-19.302;146.788;2023-03-23T01:37:02;101547.22;;;29.84;58.33
79273;BME280;68718;-19.302;146.788;2023-03-23T01:39:27;101546.23;;;29.55;58.08
79273;BME280;68718;-19.302;146.788;2023-03-23T01:41:53;101544.29;;;29.65;59.81
79273;BME280;68718;-19.302;146.788;2023-03-23T01:46:44;101546.56;;;30.12;57.78
79273;BME280;68718;-19.302;146.788;2023-03-23T01:49:11;101544.54;;;29.67;59.88
79273;BME280;68718;-19.302;146.788;2023-03-23T01:51:37;101536.47;;;29.21;60.49
79273;BME280;68718;-19.302;146.788;2023-03-23T01:54:02;101533.63;;;29.80;58.86
79273;BME280;68718;-19.302;146.788;2023-03-23T01:56:28;101527.82;;;29.45;61.89
79273;BME280;68718;-19.302;146.788;2023-03-23T01:58:51;101520.66;;;29.07;61.42
79273;BME280;68718;-19.302;146.788;2023-03-23T02:01:16;101514.32;;;29.59;60.12
79273;BME280;68718;-19.302;146.788;2023-03-23T02:03:44;101508.92;;;29.31;60.40
79273;BME280;68718;-19.302;146.788;2023-03-23T02:06:07;101505.31;;;29.71;59.28
79273;BME280;68718;-19.302;146.788;2023-03-23T02:08:32;101503.53;;;30.04;58.98
79273;BME280;68718;-19.302;146.788;2023-03-23T02:10:57;101495.39;;;29.99;58.23
79273;BME280;68718;-19.302;146.788;2023-03-23T02:13:23;101488.87;;;30.11;58.46
79273;BME280;68718;-19.302;146.788;2023-03-23T02:15:54;101483.54;;;30.07;59.36
79273;BME280;68718;-19.302;146.788;2023-03-23T02:25:37;101462.78;;;30.16;57.26
79273;BME280;68718;-19.302;146.788;2023-03-23T02:28:04;101457.14;;;29.61;58.51
79273;BME280;68718;-19.302;146.788;2023-03-23T02:30:31;101452.02;;;30.67;57.36
79273;BME280;68718;-19.302;146.788;2023-03-23T02:35:14;101442.02;;;30.70;58.80
79273;BME280;68718;-19.302;146.788;2023-03-23T02:37:39;101435.40;;;30.20;58.56
79273;BME280;68718;-19.302;146.788;2023-03-23T02:40:06;101432.42;;;30.23;59.18
79273;BME280;68718;-19.302;146.788;2023-03-23T02:42:29;101428.25;;;30.30;57.58
79273;BME280;68718;-19.302;146.788;2023-03-23T02:44:54;101427.95;;;30.52;57.30
79273;BME280;68718;-19.302;146.788;2023-03-23T02:47:20;101420.86;;;30.14;57.67
79273;BME280;68718;-19.302;146.788;2023-03-23T02:49:46;101421.30;;;30.66;55.60
79273;BME280;68718;-19.302;146.788;2023-03-23T02:52:13;101412.66;;;30.12;56.78
79273;BME280;68718;-19.302;146.788;2023-03-23T02:54:34;101409.14;;;30.62;56.46
79273;BME280;68718;-19.302;146.788;2023-03-23T02:56:59;101403.36;;;30.45;59.06
79273;BME280;68718;-19.302;146.788;2023-03-23T02:59:24;101401.26;;;30.62;58.62
79273;BME280;68718;-19.302;146.788;2023-03-23T03:01:56;101402.08;;;29.95;61.17
79273;BME280;68718;-19.302;146.788;2023-03-23T03:04:17;101394.90;;;29.80;60.27
79273;BME280;68718;-19.302;146.788;2023-03-23T03:06:47;101395.75;;;29.73;61.26
79273;BME280;68718;-19.302;146.788;2023-03-23T03:09:10;101390.52;;;30.36;59.68
79273;BME280;68718;-19.302;146.788;2023-03-23T03:11:32;101384.98;;;30.56;60.01
79273;BME280;68718;-19.302;146.788;2023-03-23T03:14:01;101385.01;;;30.70;60.42
79273;BME280;68718;-19.302;146.788;2023-03-23T03:16:27;101384.04;;;30.58;60.70
79273;BME280;68718;-19.302;146.788;2023-03-23T03:18:51;101381.30;;;30.61;61.91
79273;BME280;68718;-19.302;146.788;2023-03-23T03:21:14;101384.26;;;30.24;62.45
79273;BME280;68718;-19.302;146.788;2023-03-23T03:23:39;101378.18;;;30.70;61.59
79273;BME280;68718;-19.302;146.788;2023-03-23T03:26:04;101376.69;;;30.38;62.96
79273;BME280;68718;-19.302;146.788;2023-03-23T03:28:28;101370.34;;;29.76;64.10
79273;BME280;68718;-19.302;146.788;2023-03-23T03:30:56;101371.80;;;30.94;60.89
79273;BME280;68718;-19.302;146.788;2023-03-23T03:33:19;101361.97;;;30.73;62.38
79273;BME280;68718;-19.302;146.788;2023-03-23T03:35:45;101359.69;;;29.98;64.04
79273;BME280;68718;-19.302;146.788;2023-03-23T03:38:11;101357.42;;;30.45;61.90
79273;BME280;68718;-19.302;146.788;2023-03-23T03:40:35;101355.99;;;30.89;61.61
79273;BME280;68718;-19.302;146.788;2023-03-23T03:43:00;101355.23;;;31.12;60.41
79273;BME280;68718;-19.302;146.788;2023-03-23T03:45:26;101356.13;;;31.12;61.29
79273;BME280;68718;-19.302;146.788;2023-03-23T03:47:51;101350.91;;;30.20;62.01
79273;BME280;68718;-19.302;146.788;2023-03-23T03:50:16;101349.58;;;30.44;61.57
79273;BME280;68718;-19.302;146.788;2023-03-23T03:52:41;101352.78;;;30.73;61.13
79273;BME280;68718;-19.302;146.788;2023-03-23T03:55:08;101357.92;;;29.47;65.06
79273;BME280;68718;-19.302;146.788;2023-03-23T03:57:32;101356.74;;;29.35;64.82
79273;BME280;68718;-19.302;146.788;2023-03-23T03:59:58;101359.44;;;30.29;62.84
79273;BME280;68718;-19.302;146.788;2023-03-23T04:02:23;101353.61;;;30.53;62.97
79273;BME280;68718;-19.302;146.788;2023-03-23T04:04:49;101357.01;;;29.86;64.37
79273;BME280;68718;-19.302;146.788;2023-03-23T04:07:14;101353.03;;;29.86;65.26
79273;BME280;68718;-19.302;146.788;2023-03-23T04:09:39;101355.07;;;29.96;66.23
79273;BME280;68718;-19.302;146.788;2023-03-23T04:12:04;101351.90;;;30.05;66.13
79273;BME280;68718;-19.302;146.788;2023-03-23T04:14:30;101348.60;;;30.11;67.35
79273;BME280;68718;-19.302;146.788;2023-03-23T04:16:54;101347.18;;;30.31;66.38
79273;BME280;68718;-19.302;146.788;2023-03-23T04:19:20;101347.77;;;29.88;68.05
79273;BME280;68718;-19.302;146.788;2023-03-23T04:21:45;101349.99;;;30.38;67.18
79273;BME280;68718;-19.302;146.788;2023-03-23T04:24:10;101350.76;;;29.74;68.57
79273;BME280;68718;-19.302;146.788;2023-03-23T04:26:35;101347.51;;;30.42;66.83
79273;BME280;68718;-19.302;146.788;2023-03-23T04:29:00;101343.24;;;29.98;67.94
79273;BME280;68718;-19.302;146.788;2023-03-23T04:31:26;101345.13;;;30.35;67.48
79273;BME280;68718;-19.302;146.788;2023-03-23T04:33:52;101343.61;;;31.03;64.46
79273;BME280;68718;-19.302;146.788;2023-03-23T04:36:17;101346.27;;;30.52;66.98
79273;BME280;68718;-19.302;146.788;2023-03-23T04:38:42;101345.07;;;29.98;66.53
79273;BME280;68718;-19.302;146.788;2023-03-23T04:41:07;101340.87;;;29.86;67.98
79273;BME280;68718;-19.302;146.788;2023-03-23T04:43:33;101341.64;;;29.66;67.50
79273;BME280;68718;-19.302;146.788;2023-03-23T04:45:59;101340.09;;;29.23;68.12
79273;BME280;68718;-19.302;146.788;2023-03-23T04:48:23;101336.46;;;29.56;67.52
79273;BME280;68718;-19.302;146.788;2023-03-23T04:50:49;101337.36;;;29.59;67.30
79273;BME280;68718;-19.302;146.788;2023-03-23T04:53:14;101340.22;;;29.23;71.05
79273;BME280;68718;-19.302;146.788;2023-03-23T04:55:39;101345.03;;;29.19;71.92
79273;BME280;68718;-19.302;146.788;2023-03-23T04:58:05;101347.88;;;28.73;72.66
79273;BME280;68718;-19.302;146.788;2023-03-23T05:00:30;101350.71;;;28.62;73.04
79273;BME280;68718;-19.302;146.788;2023-03-23T05:02:55;101346.48;;;29.01;71.92
79273;BME280;68718;-19.302;146.788;2023-03-23T05:05:22;101352.55;;;28.77;70.59
79273;BME280;68718;-19.302;146.788;2023-03-23T05:07:46;101351.83;;;29.12;69.76
79273;BME280;68718;-19.302;146.788;2023-03-23T05:10:13;101354.71;;;28.74;71.29
79273;BME280;68718;-19.302;146.788;2023-03-23T05:12:37;101354.92;;;28.65;72.09
79273;BME280;68718;-19.302;146.788;2023-03-23T05:15:02;101356.75;;;28.80;72.43
79273;BME280;68718;-19.302;146.788;2023-03-23T05:17:27;101358.85;;;28.21;75.10
79273;BME280;68718;-19.302;146.788;2023-03-23T05:19:53;101360.09;;;28.72;73.05
79273;BME280;68718;-19.302;146.788;2023-03-23T05:22:18;101366.10;;;28.12;75.32
79273;BME280;68718;-19.302;146.788;2023-03-23T05:24:43;101372.67;;;27.21;80.79
79273;BME280;68718;-19.302;146.788;2023-03-23T05:27:09;101376.56;;;27.07;85.11
79273;BME280;68718;-19.302;146.788;2023-03-23T05:29:34;101374.45;;;26.70;89.32
79273;BME280;68718;-19.302;146.788;2023-03-23T05:31:59;101371.42;;;27.01;89.09
79273;BME280;68718;-19.302;146.788;2023-03-23T05:34:24;101371.87;;;27.10;88.50
79273;BME280;68718;-19.302;146.788;2023-03-23T05:36:51;101374.79;;;27.35;86.57
79273;BME280;68718;-19.302;146.788;2023-03-23T05:39:16;101377.33;;;27.53;84.91
79273;BME280;68718;-19.302;146.788;2023-03-23T05:41:41;101386.37;;;26.96;87.29
79273;BME280;68718;-19.302;146.788;2023-03-23T05:44:06;101395.38;;;25.98;89.80
79273;BME280;68718;-19.302;146.788;2023-03-23T05:46:31;101398.57;;;25.98;87.83
79273;BME280;68718;-19.302;146.788;2023-03-23T05:48:57;101392.53;;;25.86;85.32
79273;BME280;68718;-19.302;146.788;2023-03-23T05:51:23;101388.19;;;25.94;83.92
79273;BME280;68718;-19.302;146.788;2023-03-23T05:53:48;101381.56;;;26.30;85.43
79273;BME280;68718;-19.302;146.788;2023-03-23T05:56:13;101381.15;;;26.50;86.10
79273;BME280;68718;-19.302;146.788;2023-03-23T05:58:38;101382.49;;;26.84;85.15
79273;BME280;68718;-19.302;146.788;2023-03-23T06:01:08;101378.44;;;26.52;87.31
79273;BME280;68718;-19.302;146.788;2023-03-23T06:03:29;101381.56;;;26.06;89.42
79273;BME280;68718;-19.302;146.788;2023-03-23T06:05:54;101377.87;;;26.22;89.70
79273;BME280;68718;-19.302;146.788;2023-03-23T06:08:20;101376.42;;;26.08;89.01
79273;BME280;68718;-19.302;146.788;2023-03-23T06:10:45;101377.79;;;25.90;88.20
79273;BME280;68718;-19.302;146.788;2023-03-23T06:13:10;101377.83;;;26.20;87.23
79273;BME280;68718;-19.302;146.788;2023-03-23T06:15:36;101378.54;;;26.52;85.60
79273;BME280;68718;-19.302;146.788;2023-03-23T06:18:02;101379.10;;;26.34;86.65
79273;BME280;68718;-19.302;146.788;2023-03-23T06:20:27;101384.46;;;25.94;85.78
79273;BME280;68718;-19.302;146.788;2023-03-23T06:22:52;101379.84;;;26.42;83.43
79273;BME280;68718;-19.302;146.788;2023-03-23T06:25:18;101383.42;;;25.65;85.07
79273;BME280;68718;-19.302;146.788;2023-03-23T06:27:43;101392.25;;;26.23;82.88
79273;BME280;68718;-19.302;146.788;2023-03-23T06:30:10;101392.14;;;25.59;86.79
79273;BME280;68718;-19.302;146.788;2023-03-23T06:32:34;101398.01;;;25.86;85.39
79273;BME280;68718;-19.302;146.788;2023-03-23T06:34:59;101399.16;;;25.66;86.25
79273;BME280;68718;-19.302;146.788;2023-03-23T06:37:25;101400.44;;;25.19;87.48
79273;BME280;68718;-19.302;146.788;2023-03-23T06:39:50;101399.14;;;25.81;83.76
79273;BME280;68718;-19.302;146.788;2023-03-23T06:42:15;101402.12;;;25.55;85.53
79273;BME280;68718;-19.302;146.788;2023-03-23T06:44:40;101402.27;;;25.44;84.52
79273;BME280;68718;-19.302;146.788;2023-03-23T06:47:06;101395.46;;;25.71;83.28
79273;BME280;68718;-19.302;146.788;2023-03-23T06:49:31;101399.11;;;26.30;81.52
79273;BME280;68718;-19.302;146.788;2023-03-23T06:51:57;101401.91;;;26.01;82.49
79273;BME280;68718;-19.302;146.788;2023-03-23T06:54:21;101403.66;;;26.04;82.47
79273;BME280;68718;-19.302;146.788;2023-03-23T06:56:47;101409.20;;;25.40;86.31
79273;BME280;68718;-19.302;146.788;2023-03-23T06:59:12;101409.47;;;25.37;86.58
79273;BME280;68718;-19.302;146.788;2023-03-23T07:01:38;101410.68;;;25.48;85.56
79273;BME280;68718;-19.302;146.788;2023-03-23T07:04:03;101409.86;;;25.97;87.56
79273;BME280;68718;-19.302;146.788;2023-03-23T07:06:28;101404.08;;;25.32;87.27
79273;BME280;68718;-19.302;146.788;2023-03-23T07:08:54;101401.68;;;25.62;86.12
79273;BME280;68718;-19.302;146.788;2023-03-23T07:11:19;101402.23;;;26.02;82.81
79273;BME280;68718;-19.302;146.788;2023-03-23T07:13:44;101395.72;;;26.18;82.56
79273;BME280;68718;-19.302;146.788;2023-03-23T07:16:10;101390.65;;;25.84;83.42
79273;BME280;68718;-19.302;146.788;2023-03-23T07:18:35;101390.78;;;25.86;84.05
79273;BME280;68718;-19.302;146.788;2023-03-23T07:21:01;101391.26;;;25.68;84.64
79273;BME280;68718;-19.302;146.788;2023-03-23T07:23:28;101397.51;;;25.62;84.42
79273;BME280;68718;-19.302;146.788;2023-03-23T07:25:51;101392.71;;;25.61;85.44
79273;BME280;68718;-19.302;146.788;2023-03-23T07:28:17;101394.48;;;25.62;84.34
79273;BME280;68718;-19.302;146.788;2023-03-23T07:30:42;101395.32;;;25.45;83.15
79273;BME280;68718;-19.302;146.788;2023-03-23T07:33:08;101394.80;;;25.21;85.29
79273;BME280;68718;-19.302;146.788;2023-03-23T07:35:33;101392.77;;;25.40;84.40
79273;BME280;68718;-19.302;146.788;2023-03-23T07:37:58;101387.36;;;24.96;86.06
79273;BME280;68718;-19.302;146.788;2023-03-23T07:40:24;101385.89;;;25.40;83.50
79273;BME280;68718;-19.302;146.788;2023-03-23T07:42:54;101390.57;;;25.66;82.99
79273;BME280;68718;-19.302;146.788;2023-03-23T07:45:15;101388.63;;;25.74;82.48
79273;BME280;68718;-19.302;146.788;2023-03-23T07:47:40;101388.97;;;26.07;80.11
79273;BME280;68718;-19.302;146.788;2023-03-23T07:50:07;101388.68;;;26.07;79.93
79273;BME280;68718;-19.302;146.788;2023-03-23T07:52:30;101389.91;;;25.69;78.81
79273;BME280;68718;-19.302;146.788;2023-03-23T07:54:56;101390.81;;;25.62;79.96
79273;BME280;68718;-19.302;146.788;2023-03-23T07:57:21;101389.45;;;25.33;78.83
79273;BME280;68718;-19.302;146.788;2023-03-23T07:59:46;101389.07;;;25.72;79.02
79273;BME280;68718;-19.302;146.788;2023-03-23T08:02:12;101392.29;;;25.63;79.06
79273;BME280;68718;-19.302;146.788;2023-03-23T08:04:38;101395.91;;;26.09;79.05
79273;BME280;68718;-19.302;146.788;2023-03-23T08:07:02;101395.12;;;25.94;78.96
79273;BME280;68718;-19.302;146.788;2023-03-23T08:09:28;101395.56;;;25.41;80.20
79273;BME280;68718;-19.302;146.788;2023-03-23T08:11:53;101397.51;;;25.31;80.24
79273;BME280;68718;-19.302;146.788;2023-03-23T08:14:18;101397.34;;;25.79;77.36
79273;BME280;68718;-19.302;146.788;2023-03-23T08:16:44;101399.84;;;25.35;79.24
79273;BME280;68718;-19.302;146.788;2023-03-23T08:19:09;101397.93;;;25.68;78.66
79273;BME280;68718;-19.302;146.788;2023-03-23T08:21:34;101399.51;;;25.76;79.42
79273;BME280;68718;-19.302;146.788;2023-03-23T08:23:59;101405.50;;;25.99;77.61
79273;BME280;68718;-19.302;146.788;2023-03-23T08:26:25;101405.60;;;25.64;79.60
79273;BME280;68718;-19.302;146.788;2023-03-23T08:28:50;101409.16;;;25.46;78.94
79273;BME280;68718;-19.302;146.788;2023-03-23T08:31:16;101409.49;;;25.53;79.22
79273;BME280;68718;-19.302;146.788;2023-03-23T08:33:41;101413.93;;;26.06;77.60
79273;BME280;68718;-19.302;146.788;2023-03-23T08:36:07;101414.14;;;26.09;78.75
79273;BME280;68718;-19.302;146.788;2023-03-23T08:38:32;101419.53;;;26.04;78.38
79273;BME280;68718;-19.302;146.788;2023-03-23T08:40:59;101422.55;;;26.20;77.77
79273;BME280;68718;-19.302;146.788;2023-03-23T08:43:23;101423.15;;;26.15;77.77
79273;BME280;68718;-19.302;146.788;2023-03-23T08:45:48;101425.12;;;26.14;78.67
79273;BME280;68718;-19.302;146.788;2023-03-23T08:48:13;101428.18;;;26.19;78.52
79273;BME280;68718;-19.302;146.788;2023-03-23T08:50:39;101434.86;;;25.59;79.69
79273;BME280;68718;-19.302;146.788;2023-03-23T08:53:05;101436.38;;;25.19;80.12
79273;BME280;68718;-19.302;146.788;2023-03-23T08:55:30;101438.82;;;24.75;81.75
79273;BME280;68718;-19.302;146.788;2023-03-23T08:57:55;101441.66;;;24.50;83.05
79273;BME280;68718;-19.302;146.788;2023-03-23T09:00:22;101445.65;;;25.09;80.26
79273;BME280;68718;-19.302;146.788;2023-03-23T09:02:47;101447.30;;;25.55;78.99
79273;BME280;68718;-19.302;146.788;2023-03-23T09:05:12;101448.65;;;25.48;79.70
79273;BME280;68718;-19.302;146.788;2023-03-23T09:07:36;101454.77;;;24.90;81.23
79273;BME280;68718;-19.302;146.788;2023-03-23T09:10:02;101452.53;;;25.23;80.32
79273;BME280;68718;-19.302;146.788;2023-03-23T09:12:27;101454.51;;;25.03;79.42
79273;BME280;68718;-19.302;146.788;2023-03-23T09:14:52;101457.76;;;25.52;78.56
79273;BME280;68718;-19.302;146.788;2023-03-23T09:17:18;101459.10;;;25.83;77.56
79273;BME280;68718;-19.302;146.788;2023-03-23T09:19:43;101462.59;;;25.98;77.11
79273;BME280;68718;-19.302;146.788;2023-03-23T09:22:08;101464.71;;;25.85;77.93
79273;BME280;68718;-19.302;146.788;2023-03-23T09:24:34;101465.40;;;25.56;78.61
79273;BME280;68718;-19.302;146.788;2023-03-23T09:26:59;101466.19;;;25.48;78.82
79273;BME280;68718;-19.302;146.788;2023-03-23T09:29:24;101468.31;;;25.54;79.30
79273;BME280;68718;-19.302;146.788;2023-03-23T09:31:50;101469.57;;;25.73;79.29
79273;BME280;68718;-19.302;146.788;2023-03-23T09:34:15;101471.19;;;25.35;80.60
79273;BME280;68718;-19.302;146.788;2023-03-23T09:36:41;101472.55;;;25.21;80.84
79273;BME280;68718;-19.302;146.788;2023-03-23T09:39:06;101471.08;;;25.33;80.71
79273;BME280;68718;-19.302;146.788;2023-03-23T09:41:40;101468.81;;;25.54;81.00
79273;BME280;68718;-19.302;146.788;2023-03-23T09:44:04;101471.38;;;25.31;83.87
79273;BME280;68718;-19.302;146.788;2023-03-23T09:46:33;101472.76;;;25.34;81.33
79273;BME280;68718;-19.302;146.788;2023-03-23T09:48:51;101475.28;;;25.16;82.13
79273;BME280;68718;-19.302;146.788;2023-03-23T09:51:22;101476.54;;;25.65;82.27
79273;BME280;68718;-19.302;146.788;2023-03-23T09:53:42;101479.41;;;25.10;82.06
79273;BME280;68718;-19.302;146.788;2023-03-23T09:56:10;101479.20;;;24.87;82.80
79273;BME280;68718;-19.302;146.788;2023-03-23T09:58:34;101477.27;;;24.53;84.55
79273;BME280;68718;-19.302;146.788;2023-03-23T10:00:58;101479.85;;;25.03;84.63
79273;BME280;68718;-19.302;146.788;2023-03-23T10:03:21;101478.60;;;25.10;83.35
79273;BME280;68718;-19.302;146.788;2023-03-23T10:05:47;101477.78;;;24.65;85.73
79273;BME280;68718;-19.302;146.788;2023-03-23T10:08:12;101482.17;;;25.18;84.74
79273;BME280;68718;-19.302;146.788;2023-03-23T10:10:44;101480.00;;;24.89;84.58
79273;BME280;68718;-19.302;146.788;2023-03-23T10:13:04;101482.78;;;25.30;84.42
79273;BME280;68718;-19.302;146.788;2023-03-23T10:15:28;101481.97;;;25.36;85.12
79273;BME280;68718;-19.302;146.788;2023-03-23T10:17:56;101482.98;;;25.31;84.30
79273;BME280;68718;-19.302;146.788;2023-03-23T10:20:25;101483.62;;;25.28;85.38
79273;BME280;68718;-19.302;146.788;2023-03-23T10:22:46;101481.53;;;25.18;85.73
79273;BME280;68718;-19.302;146.788;2023-03-23T10:25:15;101480.71;;;25.03;85.10
79273;BME280;68718;-19.302;146.788;2023-03-23T10:27:36;101483.18;;;25.36;84.56
79273;BME280;68718;-19.302;146.788;2023-03-23T10:30:01;101485.00;;;24.63;85.94
79273;BME280;68718;-19.302;146.788;2023-03-23T10:34:52;101485.53;;;24.45;88.63
79273;BME280;68718;-19.302;146.788;2023-03-23T10:37:18;101485.77;;;24.75;88.47
79273;BME280;68718;-19.302;146.788;2023-03-23T10:39:45;101490.07;;;24.28;89.83
79273;BME280;68718;-19.302;146.788;2023-03-23T10:42:05;101488.40;;;24.80;86.89
79273;BME280;68718;-19.302;146.788;2023-03-23T10:44:31;101491.30;;;24.18;90.57
79273;BME280;68718;-19.302;146.788;2023-03-23T10:47:00;101487.49;;;24.70;88.83
79273;BME280;68718;-19.302;146.788;2023-03-23T10:49:24;101483.64;;;24.25;89.23
79273;BME280;68718;-19.302;146.788;2023-03-23T10:51:53;101481.66;;;24.58;88.17
79273;BME280;68718;-19.302;146.788;2023-03-23T10:54:12;101486.55;;;22.97;94.26
79273;BME280;68718;-19.302;146.788;2023-03-23T10:56:40;101488.50;;;23.04;93.49
79273;BME280;68718;-19.302;146.788;2023-03-23T10:59:13;101488.70;;;23.40;92.86
79273;BME280;68718;-19.302;146.788;2023-03-23T11:01:33;101485.99;;;24.06;90.63
79273;BME280;68718;-19.302;146.788;2023-03-23T11:03:54;101492.23;;;23.49;94.09
79273;BME280;68718;-19.302;146.788;2023-03-23T11:06:22;101489.37;;;24.04;91.27
79273;BME280;68718;-19.302;146.788;2023-03-23T11:08:52;101494.14;;;23.99;91.97
79273;BME280;68718;-19.302;146.788;2023-03-23T11:11:14;101491.72;;;24.30;92.00
79273;BME280;68718;-19.302;146.788;2023-03-23T11:13:41;101497.41;;;24.02;92.26
79273;BME280;68718;-19.302;146.788;2023-03-23T11:16:01;101495.96;;;24.55;89.73
79273;BME280;68718;-19.302;146.788;2023-03-23T11:20:54;101503.61;;;23.91;93.08
79273;BME280;68718;-19.302;146.788;2023-03-23T11:23:21;101501.79;;;24.67;88.80
79273;BME280;68718;-19.302;146.788;2023-03-23T11:25:54;101506.58;;;23.76;91.82
79273;BME280;68718;-19.302;146.788;2023-03-23T11:28:10;101504.65;;;24.49;88.92
79273;BME280;68718;-19.302;146.788;2023-03-23T11:30:34;101514.11;;;24.11;92.21
79273;BME280;68718;-19.302;146.788;2023-03-23T11:33:02;101516.22;;;23.73;91.37
79273;BME280;68718;-19.302;146.788;2023-03-23T11:35:27;101518.39;;;23.88;90.69
79273;BME280;68718;-19.302;146.788;2023-03-23T11:37:53;101518.99;;;23.35;91.19
79273;BME280;68718;-19.302;146.788;2023-03-23T11:40:18;101521.37;;;23.08;93.34
79273;BME280;68718;-19.302;146.788;2023-03-23T11:42:45;101522.19;;;23.28;93.06
79273;BME280;68718;-19.302;146.788;2023-03-23T11:45:16;101522.70;;;23.91;90.74
79273;BME280;68718;-19.302;146.788;2023-03-23T11:47:35;101523.80;;;23.90;89.61
79273;BME280;68718;-19.302;146.788;2023-03-23T11:50:02;101522.52;;;23.74;88.70
79273;BME280;68718;-19.302;146.788;2023-03-23T11:52:26;101525.79;;;23.82;88.45
79273;BME280;68718;-19.302;146.788;2023-03-23T11:54:50;101530.63;;;23.75;87.45
79273;BME280;68718;-19.302;146.788;2023-03-23T11:57:13;101531.76;;;24.40;82.95
79273;BME280;68718;-19.302;146.788;2023-03-23T11:59:38;101534.49;;;23.44;85.87
79273;BME280;68718;-19.302;146.788;2023-03-23T12:04:37;101538.00;;;23.57;83.13
79273;BME280;68718;-19.302;146.788;2023-03-23T12:06:58;101542.91;;;23.10;84.55
79273;BME280;68718;-19.302;146.788;2023-03-23T12:09:30;101539.90;;;24.11;83.39
79273;BME280;68718;-19.302;146.788;2023-03-23T12:11:53;101537.44;;;24.76;79.54
79273;BME280;68718;-19.302;146.788;2023-03-23T12:14:16;101539.42;;;24.32;80.68
79273;BME280;68718;-19.302;146.788;2023-03-23T12:16:48;101539.15;;;24.11;80.00
79273;BME280;68718;-19.302;146.788;2023-03-23T12:19:05;101544.74;;;23.90;80.93
79273;BME280;68718;-19.302;146.788;2023-03-23T12:21:32;101544.09;;;24.34;78.32
79273;BME280;68718;-19.302;146.788;2023-03-23T12:23:55;101548.41;;;23.86;79.67
79273;BME280;68718;-19.302;146.788;2023-03-23T12:26:20;101549.23;;;23.36;79.62
79273;BME280;68718;-19.302;146.788;2023-03-23T12:31:13;101550.78;;;24.45;77.86